Time,TemperatureF,DewpointF,PressureIn,WindDirection,WindDirectionDegrees,WindSpeedMPH,WindSpeedGustMPH,Humidity,HourlyPrecipIn,Conditions,Clouds,dailyrainin,SoftwareType,DateUTC
2013-04-30 00:02:00,80.0,-99.9,29.96,East,96,13.0,16.0,-999,-99.99,,,-99.99,,2013-04-30 04:02:00,
2013-04-30 00:12:00,80.0,-99.9,29.97,East,100,11.0,17.0,-999,-99.99,,,-99.99,,2013-04-30 04:12:00,
2013-04-30 00:22:00,80.0,-99.9,29.96,East,101,14.0,18.0,-999,-99.99,,,-99.99,,2013-04-30 04:22:00,
2013-04-30 00:32:00,80.0,-99.9,29.96,ESE,105,15.0,19.0,-999,-99.99,,,-99.99,,2013-04-30 04:32:00,
2013-04-30 00:42:00,79.0,-99.9,29.96,ESE,112,11.0,18.0,-999,-99.99,,,-99.99,,2013-04-30 04:42:00,
2013-04-30 00:52:00,79.0,-99.9,29.96,ESE,112,12.0,14.0,-999,-99.99,,,-99.99,,2013-04-30 04:52:00,
2013-04-30 01:02:00,79.0,-99.9,29.96,East,96,11.0,15.0,-999,-99.99,,,-99.99,,2013-04-30 05:02:00,
2013-04-30 01:12:00,79.0,-99.9,29.96,ESE,112,9.0,13.0,-999,-99.99,,,-99.99,,2013-04-30 05:12:00,
2013-04-30 01:22:00,79.0,-99.9,29.96,ESE,122,9.0,13.0,-999,-99.99,,,-99.99,,2013-04-30 05:22:00,
2013-04-30 01:31:00,79.0,-99.9,29.96,ESE,120,7.0,13.0,-999,-99.99,,,-99.99,,2013-04-30 05:31:00,
2013-04-30 01:42:00,79.0,-99.9,29.95,ESE,118,8.0,11.0,-999,-99.99,,,-99.99,,2013-04-30 05:42:00,
2013-04-30 01:51:00,79.0,-99.9,29.95,SE,126,8.0,10.0,-999,-99.99,,,-99.99,,2013-04-30 05:51:00,
2013-04-30 02:02:00,79.0,-99.9,29.95,ESE,122,8.0,11.0,-999,-99.99,,,-99.99,,2013-04-30 06:02:00,
2013-04-30 02:12:00,78.0,-99.9,29.95,ESE,119,7.0,9.0,-999,-99.99,,,-99.99,,2013-04-30 06:12:00,
2013-04-30 02:21:00,78.0,-99.9,29.94,SE,126,6.0,8.0,-999,-99.99,,,-99.99,,2013-04-30 06:21:00,
2013-04-30 02:32:00,78.0,-99.9,29.94,SE,131,7.0,9.0,-999,-99.99,,,-99.99,,2013-04-30 06:32:00,
2013-04-30 02:42:00,78.0,-99.9,29.94,SE,131,7.0,8.0,-999,-99.99,,,-99.99,,2013-04-30 06:42:00,
2013-04-30 02:52:00,78.0,-99.9,29.94,ESE,123,7.0,8.0,-999,-99.99,,,-99.99,,2013-04-30 06:52:00,
2013-04-30 03:02:00,78.0,-99.9,29.94,SE,128,6.0,9.0,-999,-99.99,,,-99.99,,2013-04-30 07:02:00,
2013-04-30 03:11:00,78.0,-99.9,29.93,SE,131,6.0,8.0,-999,-99.99,,,-99.99,,2013-04-30 07:11:00,
2013-04-30 03:21:00,77.0,-99.9,29.93,SE,129,5.0,7.0,-999,-99.99,,,-99.99,,2013-04-30 07:21:00,
2013-04-30 03:32:00,78.0,-99.9,29.93,SE,130,5.0,6.0,-999,-99.99,,,-99.99,,2013-04-30 07:32:00,
2013-04-30 03:42:00,77.0,-99.9,29.93,SE,135,6.0,7.0,-999,-99.99,,,-99.99,,2013-04-30 07:42:00,
2013-04-30 03:52:00,77.0,-99.9,29.93,SE,137,6.0,7.0,-999,-99.99,,,-99.99,,2013-04-30 07:52:00,
2013-04-30 04:02:00,77.0,-99.9,29.93,SE,135,5.0,8.0,-999,-99.99,,,-99.99,,2013-04-30 08:02:00,
2013-04-30 04:11:00,77.0,-99.9,29.93,SE,139,5.0,6.0,-999,-99.99,,,-99.99,,2013-04-30 08:11:00,
2013-04-30 04:22:00,77.0,-99.9,29.93,SE,127,4.0,6.0,-999,-99.99,,,-99.99,,2013-04-30 08:22:00,
2013-04-30 04:32:00,77.0,-99.9,29.93,SE,132,4.0,5.0,-999,-99.99,,,-99.99,,2013-04-30 08:32:00,
2013-04-30 04:42:00,77.0,-99.9,29.93,SE,131,5.0,5.0,-999,-99.99,,,-99.99,,2013-04-30 08:42:00,
2013-04-30 04:52:00,77.0,-99.9,29.93,South,182,3.0,6.0,-999,-99.99,,,-99.99,,2013-04-30 08:52:00,
2013-04-30 05:02:00,77.0,-99.9,29.93,SE,133,5.0,6.0,-999,-99.99,,,-99.99,,2013-04-30 09:02:00,
2013-04-30 05:11:00,77.0,-99.9,29.93,SE,125,5.0,9.0,-999,-99.99,,,-99.99,,2013-04-30 09:11:00,
2013-04-30 05:22:00,77.0,-99.9,29.94,SE,140,5.0,6.0,-999,-99.99,,,-99.99,,2013-04-30 09:22:00,
2013-04-30 05:33:00,77.0,-99.9,29.94,SE,141,6.0,7.0,-999,-99.99,,,-99.99,,2013-04-30 09:33:00,
2013-04-30 05:43:00,77.0,-99.9,29.94,SE,127,4.0,6.0,-999,-99.99,,,-99.99,,2013-04-30 09:43:00,
2013-04-30 05:52:00,77.0,-99.9,29.94,South,191,4.0,5.0,-999,-99.99,,,-99.99,,2013-04-30 09:52:00,
2013-04-30 06:03:00,77.0,-99.9,29.94,South,170,4.0,5.0,-999,-99.99,,,-99.99,,2013-04-30 10:03:00,
2013-04-30 06:12:00,77.0,-99.9,29.94,SSE,151,3.0,4.0,-999,-99.99,,,-99.99,,2013-04-30 10:12:00,
2013-04-30 06:22:00,77.0,-99.9,29.95,SSE,153,3.0,4.0,-999,-99.99,,,-99.99,,2013-04-30 10:22:00,
2013-04-30 06:32:00,77.0,-99.9,29.95,SE,133,3.0,4.0,-999,-99.99,,,-99.99,,2013-04-30 10:32:00,
2013-04-30 06:41:00,77.0,-99.9,29.96,SSE,150,3.0,5.0,-999,-99.99,,,-99.99,,2013-04-30 10:41:00,
2013-04-30 06:52:00,77.0,-99.9,29.96,ESE,120,3.0,3.0,-999,-99.99,,,-99.99,,2013-04-30 10:52:00,
2013-04-30 07:02:00,77.0,-99.9,29.96,ESE,110,2.0,4.0,-999,-99.99,,,-99.99,,2013-04-30 11:02:00,
2013-04-30 07:11:00,77.0,-99.9,29.97,ESE,123,2.0,3.0,-999,-99.99,,,-99.99,,2013-04-30 11:11:00,
2013-04-30 07:21:00,77.0,-99.9,29.97,SSE,154,2.0,4.0,-999,-99.99,,,-99.99,,2013-04-30 11:21:00,
2013-04-30 07:32:00,77.0,-99.9,29.97,SW,222,3.0,4.0,-999,-99.99,,,-99.99,,2013-04-30 11:32:00,
2013-04-30 07:42:00,77.0,-99.9,29.97,SW,228,5.0,5.0,-999,-99.99,,,-99.99,,2013-04-30 11:42:00,
2013-04-30 07:52:00,77.0,-99.9,29.97,South,190,2.0,4.0,-999,-99.99,,,-99.99,,2013-04-30 11:52:00,
2013-04-30 08:01:00,77.0,-99.9,29.98,South,181,3.0,3.0,-999,-99.99,,,-99.99,,2013-04-30 12:01:00,
2013-04-30 08:11:00,78.0,-99.9,29.98,South,179,4.0,5.0,-999,-99.99,,,-99.99,,2013-04-30 12:11:00,
2013-04-30 08:22:00,79.0,-99.9,29.98,SSE,151,3.0,6.0,-999,-99.99,,,-99.99,,2013-04-30 12:22:00,
2013-04-30 08:31:00,79.0,-99.9,29.98,SE,136,3.0,6.0,-999,-99.99,,,-99.99,,2013-04-30 12:31:00,
2013-04-30 08:42:00,79.0,-99.9,29.99,ESE,109,8.0,13.0,-999,-99.99,,,-99.99,,2013-04-30 12:42:00,
2013-04-30 08:51:00,78.0,-99.9,29.99,ESE,119,11.0,15.0,-999,-99.99,,,-99.99,,2013-04-30 12:51:00,
2013-04-30 09:01:00,79.0,-99.9,30.00,ESE,116,9.0,11.0,-999,-99.99,,,-99.99,,2013-04-30 13:01:00,
2013-04-30 09:11:00,79.0,-99.9,30.00,SE,126,12.0,15.0,-999,-99.99,,,-99.99,,2013-04-30 13:11:00,
2013-04-30 09:21:00,78.0,-99.9,30.00,ESE,108,12.0,14.0,-999,-99.99,,,-99.99,,2013-04-30 13:21:00,
2013-04-30 09:31:00,78.0,-99.9,30.00,ESE,110,9.0,11.0,-999,-99.99,,,-99.99,,2013-04-30 13:31:00,
2013-04-30 09:41:00,79.0,-99.9,30.00,East,98,6.0,10.0,-999,-99.99,,,-99.99,,2013-04-30 13:41:00,
2013-04-30 09:52:00,79.0,-99.9,30.00,East,85,14.0,16.0,-999,-99.99,,,-99.99,,2013-04-30 13:52:00,
2013-04-30 10:02:00,80.0,-99.9,30.00,East,86,15.0,18.0,-999,-99.99,,,-99.99,,2013-04-30 14:02:00,
2013-04-30 10:11:00,80.0,-99.9,30.00,East,87,15.0,19.0,-999,-99.99,,,-99.99,,2013-04-30 14:11:00,
2013-04-30 10:21:00,80.0,-99.9,30.00,ENE,70,13.0,16.0,-999,-99.99,,,-99.99,,2013-04-30 14:21:00,
2013-04-30 10:31:00,80.0,-99.9,30.00,East,88,16.0,18.0,-999,-99.99,,,-99.99,,2013-04-30 14:31:00,
2013-04-30 10:41:00,80.0,-99.9,29.99,ENE,74,15.0,20.0,-999,-99.99,,,-99.99,,2013-04-30 14:41:00,
2013-04-30 10:52:00,80.0,-99.9,29.99,ENE,77,15.0,19.0,-999,-99.99,,,-99.99,,2013-04-30 14:52:00,
2013-04-30 11:02:00,80.0,-99.9,29.99,ENE,78,14.0,18.0,-999,-99.99,,,-99.99,,2013-04-30 15:02:00,
2013-04-30 11:11:00,80.0,-99.9,29.99,ENE,73,15.0,19.0,-999,-99.99,,,-99.99,,2013-04-30 15:11:00,
2013-04-30 11:21:00,80.0,-99.9,29.98,ENE,74,15.0,19.0,-999,-99.99,,,-99.99,,2013-04-30 15:21:00,
2013-04-30 11:32:00,80.0,-99.9,29.98,ENE,75,15.0,18.0,-999,-99.99,,,-99.99,,2013-04-30 15:32:00,
2013-04-30 11:42:00,81.0,-99.9,29.99,East,84,16.0,20.0,-999,-99.99,,,-99.99,,2013-04-30 15:42:00,
2013-04-30 11:53:00,80.0,-99.9,29.98,ENE,75,14.0,20.0,-999,-99.99,,,-99.99,,2013-04-30 15:53:00,
2013-04-30 12:02:00,80.0,-99.9,29.98,ENE,72,17.0,19.0,-999,-99.99,,,-99.99,,2013-04-30 16:02:00,
2013-04-30 12:12:00,81.0,-99.9,29.98,ENE,75,16.0,20.0,-999,-99.99,,,-99.99,,2013-04-30 16:12:00,
2013-04-30 12:23:00,81.0,-99.9,29.98,ENE,74,15.0,19.0,-999,-99.99,,,-99.99,,2013-04-30 16:23:00,
2013-04-30 12:33:00,81.0,-99.9,29.98,ENE,73,16.0,20.0,-999,-99.99,,,-99.99,,2013-04-30 16:33:00,
2013-04-30 12:42:00,81.0,-99.9,29.98,ENE,75,15.0,20.0,-999,-99.99,,,-99.99,,2013-04-30 16:42:00,
2013-04-30 12:53:00,81.0,-99.9,29.97,ENE,77,15.0,20.0,-999,-99.99,,,-99.99,,2013-04-30 16:53:00,
2013-04-30 13:02:00,80.0,-99.9,29.97,ENE,67,14.0,19.0,-999,-99.99,,,-99.99,,2013-04-30 17:02:00,
2013-04-30 13:12:00,81.0,-99.9,29.97,East,79,17.0,21.0,-999,-99.99,,,-99.99,,2013-04-30 17:12:00,
2013-04-30 13:22:00,80.0,-99.9,29.97,ENE,74,15.0,21.0,-999,-99.99,,,-99.99,,2013-04-30 17:22:00,
2013-04-30 13:32:00,80.0,-99.9,29.97,ENE,75,16.0,20.0,-999,-99.99,,,-99.99,,2013-04-30 17:32:00,
2013-04-30 13:42:00,80.0,-99.9,29.96,ENE,67,13.0,18.0,-999,-99.99,,,-99.99,,2013-04-30 17:42:00,
2013-04-30 13:53:00,80.0,-99.9,29.96,ENE,72,12.0,17.0,-999,-99.99,,,-99.99,,2013-04-30 17:53:00,
2013-04-30 14:01:00,80.0,-99.9,29.97,East,84,15.0,18.0,-999,-99.99,,,-99.99,,2013-04-30 18:01:00,
2013-04-30 14:11:00,80.0,-99.9,29.96,East,79,14.0,18.0,-999,-99.99,,,-99.99,,2013-04-30 18:11:00,
2013-04-30 14:22:00,76.0,-99.9,29.97,SE,142,15.0,20.0,-999,-99.99,,,-99.99,,2013-04-30 18:22:00,
2013-04-30 14:32:00,74.0,-99.9,29.98,South,178,11.0,21.0,-999,-99.99,,,-99.99,,2013-04-30 18:32:00,
2013-04-30 14:42:00,75.0,-99.9,29.97,ESE,115,6.0,14.0,-999,-99.99,,,-99.99,,2013-04-30 18:42:00,
2013-04-30 14:52:00,76.0,-99.9,29.96,South,173,7.0,11.0,-999,-99.99,,,-99.99,,2013-04-30 18:52:00,
2013-04-30 15:02:00,76.0,-99.9,29.96,South,174,6.0,9.0,-999,-99.99,,,-99.99,,2013-04-30 19:02:00,
2013-04-30 15:11:00,76.0,-99.9,29.96,South,190,4.0,7.0,-999,-99.99,,,-99.99,,2013-04-30 19:11:00,
2013-04-30 15:22:00,77.0,-99.9,29.95,SSE,157,4.0,8.0,-999,-99.99,,,-99.99,,2013-04-30 19:22:00,
2013-04-30 15:32:00,78.0,-99.9,29.94,East,96,15.0,20.0,-999,-99.99,,,-99.99,,2013-04-30 19:32:00,
2013-04-30 15:42:00,79.0,-99.9,29.94,East,86,18.0,21.0,-999,-99.99,,,-99.99,,2013-04-30 19:42:00,
2013-04-30 15:52:00,79.0,-99.9,29.94,East,89,18.0,22.0,-999,-99.99,,,-99.99,,2013-04-30 19:52:00,
2013-04-30 16:02:00,79.0,-99.9,29.94,East,89,18.0,22.0,-999,-99.99,,,-99.99,,2013-04-30 20:02:00,
2013-04-30 16:11:00,80.0,-99.9,29.94,East,88,18.0,21.0,-999,-99.99,,,-99.99,,2013-04-30 20:11:00,
2013-04-30 16:22:00,80.0,-99.9,29.94,East,80,15.0,21.0,-999,-99.99,,,-99.99,,2013-04-30 20:22:00,
2013-04-30 16:32:00,80.0,-99.9,29.93,East,88,18.0,22.0,-999,-99.99,,,-99.99,,2013-04-30 20:32:00,
2013-04-30 16:42:00,80.0,-99.9,29.93,East,89,20.0,24.0,-999,-99.99,,,-99.99,,2013-04-30 20:42:00,
2013-04-30 16:52:00,80.0,-99.9,29.94,East,86,18.0,21.0,-999,-99.99,,,-99.99,,2013-04-30 20:52:00,
2013-04-30 17:02:00,80.0,-99.9,29.94,East,83,19.0,22.0,-999,-99.99,,,-99.99,,2013-04-30 21:02:00,
2013-04-30 17:11:00,80.0,-99.9,29.93,East,87,18.0,22.0,-999,-99.99,,,-99.99,,2013-04-30 21:11:00,
2013-04-30 17:22:00,80.0,-99.9,29.93,East,85,19.0,22.0,-999,-99.99,,,-99.99,,2013-04-30 21:22:00,
2013-04-30 17:32:00,80.0,-99.9,29.93,East,85,20.0,23.0,-999,-99.99,,,-99.99,,2013-04-30 21:32:00,
2013-04-30 17:42:00,80.0,-99.9,29.93,East,87,20.0,24.0,-999,-99.99,,,-99.99,,2013-04-30 21:42:00,
2013-04-30 17:53:00,80.0,-99.9,29.93,East,86,18.0,23.0,-999,-99.99,,,-99.99,,2013-04-30 21:53:00,
2013-04-30 18:03:00,80.0,-99.9,29.93,East,83,17.0,21.0,-999,-99.99,,,-99.99,,2013-04-30 22:03:00,
2013-04-30 18:12:00,80.0,-99.9,29.93,East,88,20.0,23.0,-999,-99.99,,,-99.99,,2013-04-30 22:12:00,
2013-04-30 18:23:00,80.0,-99.9,29.93,East,90,20.0,23.0,-999,-99.99,,,-99.99,,2013-04-30 22:23:00,
2013-04-30 18:33:00,80.0,-99.9,29.93,East,86,19.0,23.0,-999,-99.99,,,-99.99,,2013-04-30 22:33:00,
2013-04-30 18:42:00,80.0,-99.9,29.93,East,88,19.0,22.0,-999,-99.99,,,-99.99,,2013-04-30 22:42:00,
2013-04-30 18:53:00,80.0,-99.9,29.93,East,85,19.0,23.0,-999,-99.99,,,-99.99,,2013-04-30 22:53:00,
2013-04-30 19:03:00,80.0,-99.9,29.94,East,87,18.0,24.0,-999,-99.99,,,-99.99,,2013-04-30 23:03:00,
2013-04-30 19:12:00,80.0,-99.9,29.94,East,85,18.0,21.0,-999,-99.99,,,-99.99,,2013-04-30 23:12:00,
2013-04-30 19:22:00,79.0,-99.9,29.95,East,88,18.0,21.0,-999,-99.99,,,-99.99,,2013-04-30 23:22:00,
2013-04-30 19:32:00,80.0,-99.9,29.95,East,88,16.0,22.0,-999,-99.99,,,-99.99,,2013-04-30 23:32:00,
2013-04-30 19:42:00,79.0,-99.9,29.96,East,86,16.0,19.0,-999,-99.99,,,-99.99,,2013-04-30 23:42:00,
2013-04-30 19:52:00,80.0,-99.9,29.96,East,92,15.0,20.0,-999,-99.99,,,-99.99,,2013-04-30 23:52:00,
2013-04-30 20:02:00,80.0,-99.9,29.96,East,88,17.0,20.0,-999,-99.99,,,-99.99,,2013-05-01 00:02:00,
2013-04-30 20:11:00,79.0,-99.9,29.96,East,83,18.0,21.0,-999,-99.99,,,-99.99,,2013-05-01 00:11:00,
2013-04-30 20:22:00,79.0,-99.9,29.96,East,96,17.0,19.0,-999,-99.99,,,-99.99,,2013-05-01 00:22:00,
2013-04-30 20:32:00,80.0,-99.9,29.96,East,83,17.0,21.0,-999,-99.99,,,-99.99,,2013-05-01 00:32:00,
2013-04-30 20:42:00,80.0,-99.9,29.96,East,88,17.0,21.0,-999,-99.99,,,-99.99,,2013-05-01 00:42:00,
2013-04-30 20:52:00,79.0,-99.9,29.96,East,83,18.0,21.0,-999,-99.99,,,-99.99,,2013-05-01 00:52:00,
2013-04-30 21:01:00,80.0,-99.9,29.96,East,89,18.0,21.0,-999,-99.99,,,-99.99,,2013-05-01 01:01:00,
2013-04-30 21:11:00,80.0,-99.9,29.97,East,86,18.0,22.0,-999,-99.99,,,-99.99,,2013-05-01 01:11:00,
2013-04-30 21:21:00,80.0,-99.9,29.96,East,86,17.0,23.0,-999,-99.99,,,-99.99,,2013-05-01 01:21:00,
2013-04-30 21:32:00,80.0,-99.9,29.96,East,88,19.0,22.0,-999,-99.99,,,-99.99,,2013-05-01 01:32:00,
2013-04-30 21:42:00,79.0,-99.9,29.97,East,86,20.0,23.0,-999,-99.99,,,-99.99,,2013-05-01 01:42:00,
2013-04-30 21:52:00,80.0,-99.9,29.97,East,97,16.0,21.0,-999,-99.99,,,-99.99,,2013-05-01 01:52:00,
2013-04-30 22:02:00,80.0,-99.9,29.98,East,91,16.0,20.0,-999,-99.99,,,-99.99,,2013-05-01 02:02:00,
2013-04-30 22:11:00,79.0,-99.9,29.97,East,90,18.0,21.0,-999,-99.99,,,-99.99,,2013-05-01 02:11:00,
2013-04-30 22:22:00,80.0,-99.9,29.97,East,93,17.0,22.0,-999,-99.99,,,-99.99,,2013-05-01 02:22:00,
2013-04-30 22:32:00,80.0,-99.9,29.98,East,94,15.0,20.0,-999,-99.99,,,-99.99,,2013-05-01 02:32:00,
2013-04-30 22:42:00,79.0,-99.9,29.98,East,85,18.0,19.0,-999,-99.99,,,-99.99,,2013-05-01 02:42:00,
2013-04-30 22:52:00,80.0,-99.9,29.98,East,95,16.0,22.0,-999,-99.99,,,-99.99,,2013-05-01 02:52:00,
2013-04-30 23:02:00,80.0,-99.9,29.98,East,91,17.0,21.0,-999,-99.99,,,-99.99,,2013-05-01 03:02:00,
2013-04-30 23:11:00,80.0,-99.9,29.98,East,90,16.0,21.0,-999,-99.99,,,-99.99,,2013-05-01 03:11:00,
2013-04-30 23:22:00,78.0,-99.9,29.98,SE,124,15.0,19.0,-999,-99.99,,,-99.99,,2013-05-01 03:22:00,
2013-04-30 23:33:00,78.0,-99.9,29.98,SE,125,12.0,15.0,-999,-99.99,,,-99.99,,2013-05-01 03:33:00,
2013-04-30 23:43:00,77.0,-99.9,29.99,ESE,120,13.0,15.0,-999,-99.99,,,-99.99,,2013-05-01 03:43:00,
2013-04-30 23:53:00,76.0,-99.9,29.98,SE,132,10.0,15.0,-999,-99.99,,,-99.99,,2013-05-01 03:53:00,